sensor_id;sensor_type;location;lat;lon;timestamp;P1;durP1;ratioP1;P2;durP2;ratioP2
73337;SDS011;61575;49.908;35.556;2023-02-13T00:00:38;35.17;;;16.02;;
73337;SDS011;61575;49.908;35.556;2023-02-13T00:03:40;30.25;;;14.48;;
73337;SDS011;61575;49.908;35.556;2023-02-13T00:06:42;16.10;;;9.20;;
73337;SDS011;61575;49.908;35.556;2023-02-13T00:09:44;17.10;;;9.90;;
73337;SDS011;61575;49.908;35.556;2023-02-13T00:12:46;12.02;;;7.68;;
73337;SDS011;61575;49.908;35.556;2023-02-13T00:15:54;16.83;;;8.98;;
73337;SDS011;61575;49.908;35.556;2023-02-13T00:18:59;15.70;;;9.23;;
73337;SDS011;61575;49.908;35.556;2023-02-13T00:22:00;14.02;;;6.90;;
73337;SDS011;61575;49.908;35.556;2023-02-13T00:25:03;14.55;;;6.75;;
73337;SDS011;61575;49.908;35.556;2023-02-13T00:28:06;13.15;;;7.25;;
73337;SDS011;61575;49.908;35.556;2023-02-13T00:31:09;8.48;;;3.90;;
73337;SDS011;61575;49.908;35.556;2023-02-13T00:34:13;8.73;;;3.58;;
73337;SDS011;61575;49.908;35.556;2023-02-13T00:37:15;21.13;;;10.90;;
73337;SDS011;61575;49.908;35.556;2023-02-13T00:40:17;11.73;;;5.90;;
73337;SDS011;61575;49.908;35.556;2023-02-13T00:43:19;6.10;;;3.20;;
73337;SDS011;61575;49.908;35.556;2023-02-13T00:46:21;10.48;;;6.85;;
73337;SDS011;61575;49.908;35.556;2023-02-13T00:49:23;5.88;;;3.03;;
73337;SDS011;61575;49.908;35.556;2023-02-13T00:52:25;6.33;;;4.23;;
73337;SDS011;61575;49.908;35.556;2023-02-13T00:55:27;12.98;;;6.20;;
73337;SDS011;61575;49.908;35.556;2023-02-13T00:58:29;32.95;;;15.02;;
73337;SDS011;61575;49.908;35.556;2023-02-13T01:01:31;30.05;;;13.80;;
73337;SDS011;61575;49.908;35.556;2023-02-13T01:04:33;12.32;;;4.28;;
73337;SDS011;61575;49.908;35.556;2023-02-13T01:07:35;15.40;;;5.72;;
73337;SDS011;61575;49.908;35.556;2023-02-13T01:10:39;18.08;;;7.18;;
73337;SDS011;61575;49.908;35.556;2023-02-13T01:16:43;10.13;;;4.68;;
73337;SDS011;61575;49.908;35.556;2023-02-13T01:19:45;10.50;;;5.93;;
73337;SDS011;61575;49.908;35.556;2023-02-13T01:22:47;6.00;;;2.53;;
73337;SDS011;61575;49.908;35.556;2023-02-13T01:28:52;4.55;;;1.95;;
73337;SDS011;61575;49.908;35.556;2023-02-13T01:35:02;5.57;;;1.98;;
73337;SDS011;61575;49.908;35.556;2023-02-13T01:38:04;6.43;;;2.75;;
73337;SDS011;61575;49.908;35.556;2023-02-13T01:41:06;6.75;;;3.00;;
73337;SDS011;61575;49.908;35.556;2023-02-13T01:47:51;4.50;;;1.80;;
73337;SDS011;61575;49.908;35.556;2023-02-13T01:50:59;7.90;;;3.08;;
73337;SDS011;61575;49.908;35.556;2023-02-13T01:54:05;8.20;;;3.85;;
73337;SDS011;61575;49.908;35.556;2023-02-13T01:57:18;10.95;;;6.20;;
73337;SDS011;61575;49.908;35.556;2023-02-13T02:00:24;6.00;;;3.33;;
73337;SDS011;61575;49.908;35.556;2023-02-13T02:03:34;13.33;;;6.10;;
73337;SDS011;61575;49.908;35.556;2023-02-13T02:06:47;9.02;;;3.80;;
73337;SDS011;61575;49.908;35.556;2023-02-13T02:09:59;7.80;;;2.95;;
73337;SDS011;61575;49.908;35.556;2023-02-13T02:16:12;7.78;;;3.45;;
73337;SDS011;61575;49.908;35.556;2023-02-13T02:32:51;69.00;;;26.27;;
73337;SDS011;61575;49.908;35.556;2023-02-13T02:36:21;51.00;;;19.38;;
73337;SDS011;61575;49.908;35.556;2023-02-13T02:39:37;25.58;;;10.00;;
73337;SDS011;61575;49.908;35.556;2023-02-13T02:49:14;17.77;;;7.38;;
73337;SDS011;61575;49.908;35.556;2023-02-13T02:52:39;54.05;;;22.08;;
73337;SDS011;61575;49.908;35.556;2023-02-13T02:56:17;40.08;;;14.00;;
73337;SDS011;61575;49.908;35.556;2023-02-13T02:59:31;29.92;;;11.00;;
73337;SDS011;61575;49.908;35.556;2023-02-13T03:02:55;15.25;;;6.65;;
73337;SDS011;61575;49.908;35.556;2023-02-13T03:06:31;15.15;;;5.00;;
73337;SDS011;61575;49.908;35.556;2023-02-13T03:09:39;20.33;;;10.60;;
73337;SDS011;61575;49.908;35.556;2023-02-13T03:13:05;22.55;;;10.80;;
73337;SDS011;61575;49.908;35.556;2023-02-13T03:16:24;24.52;;;12.80;;
73337;SDS011;61575;49.908;35.556;2023-02-13T03:23:22;25.85;;;12.88;;
73337;SDS011;61575;49.908;35.556;2023-02-13T03:26:36;13.50;;;6.43;;
73337;SDS011;61575;49.908;35.556;2023-02-13T03:29:57;8.38;;;3.63;;
73337;SDS011;61575;49.908;35.556;2023-02-13T03:33:12;10.65;;;4.30;;
73337;SDS011;61575;49.908;35.556;2023-02-13T03:40:12;6.70;;;2.60;;
73337;SDS011;61575;49.908;35.556;2023-02-13T03:43:22;7.28;;;3.30;;
73337;SDS011;61575;49.908;35.556;2023-02-13T03:46:25;13.98;;;6.65;;
73337;SDS011;61575;49.908;35.556;2023-02-13T03:53:07;7.50;;;2.85;;
73337;SDS011;61575;49.908;35.556;2023-02-13T03:56:12;11.40;;;4.88;;
73337;SDS011;61575;49.908;35.556;2023-02-13T03:59:35;6.82;;;3.10;;
73337;SDS011;61575;49.908;35.556;2023-02-13T04:05:46;10.98;;;3.75;;
73337;SDS011;61575;49.908;35.556;2023-02-13T04:08:50;8.27;;;2.60;;
73337;SDS011;61575;49.908;35.556;2023-02-13T04:11:55;5.50;;;2.40;;
73337;SDS011;61575;49.908;35.556;2023-02-13T04:15:03;8.18;;;2.58;;
73337;SDS011;61575;49.908;35.556;2023-02-13T04:18:31;7.25;;;3.00;;
73337;SDS011;61575;49.908;35.556;2023-02-13T04:21:35;7.25;;;3.30;;
73337;SDS011;61575;49.908;35.556;2023-02-13T04:24:38;8.00;;;3.33;;
73337;SDS011;61575;49.908;35.556;2023-02-13T04:27:40;8.57;;;3.50;;
73337;SDS011;61575;49.908;35.556;2023-02-13T04:30:42;10.30;;;3.72;;
73337;SDS011;61575;49.908;35.556;2023-02-13T04:33:44;7.75;;;3.70;;
73337;SDS011;61575;49.908;35.556;2023-02-13T04:36:45;10.75;;;3.00;;
73337;SDS011;61575;49.908;35.556;2023-02-13T04:39:47;7.20;;;2.80;;
73337;SDS011;61575;49.908;35.556;2023-02-13T04:42:49;8.63;;;2.47;;
73337;SDS011;61575;49.908;35.556;2023-02-13T04:45:51;9.95;;;4.03;;
73337;SDS011;61575;49.908;35.556;2023-02-13T04:48:53;9.95;;;5.30;;
73337;SDS011;61575;49.908;35.556;2023-02-13T04:51:55;12.30;;;5.50;;
73337;SDS011;61575;49.908;35.556;2023-02-13T04:54:56;23.48;;;12.05;;
73337;SDS011;61575;49.908;35.556;2023-02-13T04:57:58;13.52;;;6.97;;
73337;SDS011;61575;49.908;35.556;2023-02-13T05:01:00;27.77;;;13.98;;
73337;SDS011;61575;49.908;35.556;2023-02-13T05:04:02;18.77;;;9.47;;
73337;SDS011;61575;49.908;35.556;2023-02-13T05:07:04;15.97;;;6.70;;
73337;SDS011;61575;49.908;35.556;2023-02-13T05:10:06;16.88;;;7.55;;
73337;SDS011;61575;49.908;35.556;2023-02-13T05:16:10;14.85;;;7.28;;
73337;SDS011;61575;49.908;35.556;2023-02-13T05:19:12;16.17;;;6.90;;
73337;SDS011;61575;49.908;35.556;2023-02-13T05:22:14;12.07;;;5.75;;
73337;SDS011;61575;49.908;35.556;2023-02-13T05:25:36;10.27;;;4.47;;
73337;SDS011;61575;49.908;35.556;2023-02-13T05:28:39;8.95;;;3.85;;
73337;SDS011;61575;49.908;35.556;2023-02-13T05:32:00;9.10;;;3.78;;
73337;SDS011;61575;49.908;35.556;2023-02-13T05:35:02;8.77;;;3.00;;
73337;SDS011;61575;49.908;35.556;2023-02-13T05:38:05;5.97;;;2.40;;
73337;SDS011;61575;49.908;35.556;2023-02-13T05:41:07;5.97;;;2.58;;
73337;SDS011;61575;49.908;35.556;2023-02-13T05:44:09;8.82;;;3.70;;
73337;SDS011;61575;49.908;35.556;2023-02-13T05:47:11;11.88;;;4.38;;
73337;SDS011;61575;49.908;35.556;2023-02-13T05:50:13;7.82;;;4.32;;
73337;SDS011;61575;49.908;35.556;2023-02-13T05:53:15;8.30;;;3.80;;
73337;SDS011;61575;49.908;35.556;2023-02-13T05:56:17;7.95;;;3.08;;
73337;SDS011;61575;49.908;35.556;2023-02-13T05:59:19;6.28;;;2.75;;
73337;SDS011;61575;49.908;35.556;2023-02-13T06:02:23;6.85;;;3.00;;
73337;SDS011;61575;49.908;35.556;2023-02-13T06:05:25;7.30;;;2.83;;
73337;SDS011;61575;49.908;35.556;2023-02-13T06:08:27;9.50;;;3.70;;
73337;SDS011;61575;49.908;35.556;2023-02-13T06:11:29;10.05;;;3.78;;
73337;SDS011;61575;49.908;35.556;2023-02-13T06:14:31;7.32;;;2.80;;
73337;SDS011;61575;49.908;35.556;2023-02-13T06:17:33;8.00;;;3.00;;
73337;SDS011;61575;49.908;35.556;2023-02-13T06:20:34;8.68;;;3.63;;
73337;SDS011;61575;49.908;35.556;2023-02-13T06:23:36;12.40;;;4.90;;
73337;SDS011;61575;49.908;35.556;2023-02-13T06:26:38;11.50;;;4.43;;
73337;SDS011;61575;49.908;35.556;2023-02-13T06:29:40;10.25;;;4.05;;
73337;SDS011;61575;49.908;35.556;2023-02-13T06:32:42;9.60;;;3.25;;
73337;SDS011;61575;49.908;35.556;2023-02-13T06:35:46;9.13;;;3.70;;
73337;SDS011;61575;49.908;35.556;2023-02-13T06:38:48;8.40;;;3.22;;
73337;SDS011;61575;49.908;35.556;2023-02-13T06:41:50;9.75;;;3.30;;
73337;SDS011;61575;49.908;35.556;2023-02-13T06:44:52;11.60;;;4.40;;
73337;SDS011;61575;49.908;35.556;2023-02-13T06:47:54;11.32;;;4.72;;
73337;SDS011;61575;49.908;35.556;2023-02-13T06:50:56;6.35;;;2.85;;
73337;SDS011;61575;49.908;35.556;2023-02-13T06:53:58;4.70;;;2.08;;
73337;SDS011;61575;49.908;35.556;2023-02-13T06:57:00;8.32;;;3.10;;
73337;SDS011;61575;49.908;35.556;2023-02-13T07:00:02;7.47;;;2.67;;
73337;SDS011;61575;49.908;35.556;2023-02-13T07:03:06;7.47;;;2.75;;
73337;SDS011;61575;49.908;35.556;2023-02-13T07:06:08;7.95;;;2.50;;
73337;SDS011;61575;49.908;35.556;2023-02-13T07:09:10;7.18;;;2.80;;
73337;SDS011;61575;49.908;35.556;2023-02-13T07:12:14;7.38;;;2.47;;
73337;SDS011;61575;49.908;35.556;2023-02-13T07:15:15;6.22;;;2.30;;
73337;SDS011;61575;49.908;35.556;2023-02-13T07:18:17;6.57;;;3.00;;
73337;SDS011;61575;49.908;35.556;2023-02-13T07:21:19;7.05;;;2.40;;
73337;SDS011;61575;49.908;35.556;2023-02-13T07:24:21;7.00;;;2.92;;
73337;SDS011;61575;49.908;35.556;2023-02-13T07:27:23;5.82;;;2.42;;
73337;SDS011;61575;49.908;35.556;2023-02-13T07:30:25;5.57;;;2.30;;
73337;SDS011;61575;49.908;35.556;2023-02-13T07:33:26;8.50;;;3.70;;
73337;SDS011;61575;49.908;35.556;2023-02-13T07:36:28;9.02;;;2.50;;
73337;SDS011;61575;49.908;35.556;2023-02-13T07:39:30;11.20;;;4.45;;
73337;SDS011;61575;49.908;35.556;2023-02-13T07:42:32;12.77;;;5.40;;
73337;SDS011;61575;49.908;35.556;2023-02-13T07:45:35;7.95;;;3.40;;
73337;SDS011;61575;49.908;35.556;2023-02-13T07:48:37;6.00;;;2.38;;
73337;SDS011;61575;49.908;35.556;2023-02-13T07:51:38;6.40;;;2.40;;
73337;SDS011;61575;49.908;35.556;2023-02-13T07:54:40;5.50;;;2.50;;
73337;SDS011;61575;49.908;35.556;2023-02-13T07:57:48;5.57;;;2.00;;
73337;SDS011;61575;49.908;35.556;2023-02-13T08:00:50;5.45;;;2.17;;
73337;SDS011;61575;49.908;35.556;2023-02-13T08:03:52;5.85;;;1.98;;
73337;SDS011;61575;49.908;35.556;2023-02-13T08:06:54;7.10;;;2.50;;
73337;SDS011;61575;49.908;35.556;2023-02-13T08:09:56;6.35;;;2.20;;
73337;SDS011;61575;49.908;35.556;2023-02-13T08:13:17;6.13;;;2.30;;
73337;SDS011;61575;49.908;35.556;2023-02-13T08:16:19;6.82;;;2.67;;
73337;SDS011;61575;49.908;35.556;2023-02-13T08:19:21;5.70;;;2.45;;
73337;SDS011;61575;49.908;35.556;2023-02-13T08:22:23;6.32;;;2.30;;
73337;SDS011;61575;49.908;35.556;2023-02-13T08:25:25;5.95;;;2.47;;
73337;SDS011;61575;49.908;35.556;2023-02-13T08:28:29;5.82;;;2.30;;
73337;SDS011;61575;49.908;35.556;2023-02-13T08:31:31;7.25;;;2.78;;
73337;SDS011;61575;49.908;35.556;2023-02-13T08:34:33;7.70;;;2.63;;
73337;SDS011;61575;49.908;35.556;2023-02-13T08:37:35;5.88;;;2.42;;
73337;SDS011;61575;49.908;35.556;2023-02-13T08:40:37;5.88;;;2.15;;
73337;SDS011;61575;49.908;35.556;2023-02-13T08:43:39;7.18;;;2.10;;
73337;SDS011;61575;49.908;35.556;2023-02-13T08:46:41;6.13;;;2.83;;
73337;SDS011;61575;49.908;35.556;2023-02-13T08:49:43;5.80;;;2.33;;
73337;SDS011;61575;49.908;35.556;2023-02-13T08:52:44;5.72;;;2.30;;
73337;SDS011;61575;49.908;35.556;2023-02-13T08:55:53;6.22;;;2.25;;
73337;SDS011;61575;49.908;35.556;2023-02-13T08:58:57;6.05;;;2.75;;
73337;SDS011;61575;49.908;35.556;2023-02-13T09:01:59;6.43;;;2.30;;
73337;SDS011;61575;49.908;35.556;2023-02-13T09:05:00;5.10;;;2.10;;
73337;SDS011;61575;49.908;35.556;2023-02-13T09:08:02;6.40;;;2.55;;
73337;SDS011;61575;49.908;35.556;2023-02-13T09:11:04;6.60;;;2.50;;
73337;SDS011;61575;49.908;35.556;2023-02-13T09:17:09;6.82;;;2.50;;
73337;SDS011;61575;49.908;35.556;2023-02-13T09:20:11;8.25;;;2.80;;
73337;SDS011;61575;49.908;35.556;2023-02-13T09:23:14;6.65;;;2.42;;
73337;SDS011;61575;49.908;35.556;2023-02-13T09:26:16;6.70;;;2.72;;
73337;SDS011;61575;49.908;35.556;2023-02-13T09:29:21;8.05;;;2.83;;
73337;SDS011;61575;49.908;35.556;2023-02-13T09:32:23;8.30;;;2.75;;
73337;SDS011;61575;49.908;35.556;2023-02-13T09:35:25;7.47;;;3.42;;
73337;SDS011;61575;49.908;35.556;2023-02-13T09:38:27;7.68;;;3.45;;
73337;SDS011;61575;49.908;35.556;2023-02-13T09:41:35;7.75;;;3.55;;
73337;SDS011;61575;49.908;35.556;2023-02-13T09:44:42;9.38;;;3.65;;
73337;SDS011;61575;49.908;35.556;2023-02-13T09:47:46;7.35;;;3.40;;
73337;SDS011;61575;49.908;35.556;2023-02-13T09:50:49;6.07;;;2.95;;
73337;SDS011;61575;49.908;35.556;2023-02-13T09:53:59;6.87;;;3.07;;
73337;SDS011;61575;49.908;35.556;2023-02-13T10:00:39;7.13;;;2.67;;
73337;SDS011;61575;49.908;35.556;2023-02-13T10:03:44;4.47;;;2.22;;
73337;SDS011;61575;49.908;35.556;2023-02-13T10:06:49;7.38;;;2.72;;
73337;SDS011;61575;49.908;35.556;2023-02-13T10:16:13;7.30;;;2.92;;
73337;SDS011;61575;49.908;35.556;2023-02-13T10:22:31;7.70;;;2.95;;
73337;SDS011;61575;49.908;35.556;2023-02-13T10:25:45;8.15;;;3.42;;
73337;SDS011;61575;49.908;35.556;2023-02-13T10:29:01;8.68;;;3.20;;
73337;SDS011;61575;49.908;35.556;2023-02-13T10:39:42;7.97;;;3.42;;
73337;SDS011;61575;49.908;35.556;2023-02-13T10:42:40;8.15;;;3.00;;
73337;SDS011;61575;49.908;35.556;2023-02-13T10:46:01;8.75;;;3.38;;
73337;SDS011;61575;49.908;35.556;2023-02-13T10:55:53;6.68;;;3.00;;
73337;SDS011;61575;49.908;35.556;2023-02-13T11:05:36;8.18;;;3.10;;
73337;SDS011;61575;49.908;35.556;2023-02-13T11:08:40;7.97;;;2.90;;
73337;SDS011;61575;49.908;35.556;2023-02-13T11:11:43;22.15;;;7.47;;
73337;SDS011;61575;49.908;35.556;2023-02-13T11:15:04;14.05;;;5.05;;
73337;SDS011;61575;49.908;35.556;2023-02-13T11:18:17;6.80;;;3.17;;
73337;SDS011;61575;49.908;35.556;2023-02-13T11:21:22;8.05;;;3.00;;
73337;SDS011;61575;49.908;35.556;2023-02-13T11:24:35;4.80;;;2.05;;
73337;SDS011;61575;49.908;35.556;2023-02-13T11:27:40;5.93;;;2.78;;
73337;SDS011;61575;49.908;35.556;2023-02-13T11:30:42;7.43;;;2.75;;
73337;SDS011;61575;49.908;35.556;2023-02-13T11:33:44;7.40;;;3.35;;
73337;SDS011;61575;49.908;35.556;2023-02-13T11:36:50;8.95;;;3.25;;
73337;SDS011;61575;49.908;35.556;2023-02-13T11:39:54;9.32;;;3.20;;
73337;SDS011;61575;49.908;35.556;2023-02-13T11:42:58;8.93;;;3.42;;
73337;SDS011;61575;49.908;35.556;2023-02-13T11:46:04;10.45;;;3.70;;
73337;SDS011;61575;49.908;35.556;2023-02-13T11:53:00;8.82;;;3.78;;
73337;SDS011;61575;49.908;35.556;2023-02-13T11:56:07;10.52;;;3.47;;
73337;SDS011;61575;49.908;35.556;2023-02-13T11:59:14;6.90;;;3.20;;
73337;SDS011;61575;49.908;35.556;2023-02-13T12:05:21;7.03;;;3.42;;
73337;SDS011;61575;49.908;35.556;2023-02-13T12:08:25;8.70;;;3.50;;
73337;SDS011;61575;49.908;35.556;2023-02-13T12:14:39;6.88;;;3.05;;
73337;SDS011;61575;49.908;35.556;2023-02-13T12:17:47;7.68;;;3.03;;
73337;SDS011;61575;49.908;35.556;2023-02-13T12:40:29;7.25;;;3.88;;
73337;SDS011;61575;49.908;35.556;2023-02-13T13:06:57;15.27;;;6.45;;
73337;SDS011;61575;49.908;35.556;2023-02-13T13:10:35;18.42;;;6.93;;
73337;SDS011;61575;49.908;35.556;2023-02-13T13:13:47;12.50;;;4.65;;
73337;SDS011;61575;49.908;35.556;2023-02-13T13:17:04;8.35;;;3.83;;
73337;SDS011;61575;49.908;35.556;2023-02-13T13:27:00;8.07;;;3.88;;
73337;SDS011;61575;49.908;35.556;2023-02-13T13:30:15;8.57;;;3.42;;
73337;SDS011;61575;49.908;35.556;2023-02-13T13:33:24;9.32;;;4.10;;
73337;SDS011;61575;49.908;35.556;2023-02-13T13:40:04;7.72;;;3.65;;
73337;SDS011;61575;49.908;35.556;2023-02-13T13:47:15;16.67;;;6.90;;
73337;SDS011;61575;49.908;35.556;2023-02-13T13:50:26;11.80;;;3.83;;
73337;SDS011;61575;49.908;35.556;2023-02-13T13:53:31;7.68;;;3.50;;
73337;SDS011;61575;49.908;35.556;2023-02-13T14:03:32;9.27;;;3.75;;
73337;SDS011;61575;49.908;35.556;2023-02-13T14:09:46;8.85;;;4.18;;
73337;SDS011;61575;49.908;35.556;2023-02-13T14:12:58;10.65;;;4.15;;
73337;SDS011;61575;49.908;35.556;2023-02-13T14:16:04;9.32;;;4.20;;
73337;SDS011;61575;49.908;35.556;2023-02-13T14:22:32;8.77;;;3.92;;
73337;SDS011;61575;49.908;35.556;2023-02-13T14:25:37;9.55;;;4.03;;
73337;SDS011;61575;49.908;35.556;2023-02-13T14:28:42;8.18;;;3.53;;
73337;SDS011;61575;49.908;35.556;2023-02-13T14:32:04;12.43;;;4.45;;
73337;SDS011;61575;49.908;35.556;2023-02-13T14:38:21;9.85;;;4.00;;
73337;SDS011;61575;49.908;35.556;2023-02-13T14:41:41;9.32;;;3.92;;
73337;SDS011;61575;49.908;35.556;2023-02-13T14:44:50;8.18;;;4.30;;
73337;SDS011;61575;49.908;35.556;2023-02-13T14:48:07;8.93;;;4.22;;
73337;SDS011;61575;49.908;35.556;2023-02-13T14:51:15;11.32;;;4.82;;
73337;SDS011;61575;49.908;35.556;2023-02-13T14:54:36;9.35;;;4.70;;
73337;SDS011;61575;49.908;35.556;2023-02-13T14:57:43;9.05;;;4.65;;
73337;SDS011;61575;49.908;35.556;2023-02-13T15:00:56;9.43;;;4.53;;
73337;SDS011;61575;49.908;35.556;2023-02-13T15:04:06;8.30;;;4.43;;
73337;SDS011;61575;49.908;35.556;2023-02-13T15:07:15;9.32;;;4.65;;
73337;SDS011;61575;49.908;35.556;2023-02-13T15:13:42;11.02;;;5.30;;
73337;SDS011;61575;49.908;35.556;2023-02-13T15:16:45;11.77;;;5.05;;
73337;SDS011;61575;49.908;35.556;2023-02-13T15:19:53;10.02;;;5.40;;
73337;SDS011;61575;49.908;35.556;2023-02-13T15:22:58;9.60;;;4.82;;
73337;SDS011;61575;49.908;35.556;2023-02-13T15:26:01;10.65;;;5.15;;
73337;SDS011;61575;49.908;35.556;2023-02-13T15:29:17;12.00;;;5.65;;
73337;SDS011;61575;49.908;35.556;2023-02-13T15:32:32;12.80;;;5.88;;
73337;SDS011;61575;49.908;35.556;2023-02-13T15:35:39;15.15;;;6.72;;
73337;SDS011;61575;49.908;35.556;2023-02-13T15:38:41;11.70;;;5.80;;
73337;SDS011;61575;49.908;35.556;2023-02-13T15:41:46;11.70;;;5.82;;
73337;SDS011;61575;49.908;35.556;2023-02-13T15:44:51;11.30;;;5.72;;
73337;SDS011;61575;49.908;35.556;2023-02-13T15:47:58;13.35;;;6.32;;
73337;SDS011;61575;49.908;35.556;2023-02-13T15:51:00;14.80;;;6.00;;
73337;SDS011;61575;49.908;35.556;2023-02-13T15:54:18;14.50;;;6.43;;
73337;SDS011;61575;49.908;35.556;2023-02-13T15:57:22;14.23;;;6.57;;
73337;SDS011;61575;49.908;35.556;2023-02-13T16:00:31;14.40;;;6.78;;
73337;SDS011;61575;49.908;35.556;2023-02-13T16:03:35;15.45;;;6.55;;
73337;SDS011;61575;49.908;35.556;2023-02-13T16:06:43;15.32;;;7.78;;
73337;SDS011;61575;49.908;35.556;2023-02-13T16:09:47;13.32;;;6.93;;
73337;SDS011;61575;49.908;35.556;2023-02-13T16:12:49;15.40;;;6.95;;
73337;SDS011;61575;49.908;35.556;2023-02-13T16:15:51;15.40;;;7.50;;
73337;SDS011;61575;49.908;35.556;2023-02-13T16:18:53;15.07;;;7.18;;
73337;SDS011;61575;49.908;35.556;2023-02-13T16:21:55;16.90;;;7.15;;
73337;SDS011;61575;49.908;35.556;2023-02-13T16:25:02;17.60;;;8.52;;
73337;SDS011;61575;49.908;35.556;2023-02-13T16:28:28;17.00;;;8.55;;
73337;SDS011;61575;49.908;35.556;2023-02-13T16:31:33;20.60;;;7.95;;
73337;SDS011;61575;49.908;35.556;2023-02-13T16:34:35;16.20;;;7.93;;
73337;SDS011;61575;49.908;35.556;2023-02-13T16:37:46;17.80;;;8.18;;
73337;SDS011;61575;49.908;35.556;2023-02-13T16:40:50;18.15;;;8.85;;
73337;SDS011;61575;49.908;35.556;2023-02-13T16:43:53;20.58;;;9.10;;
73337;SDS011;61575;49.908;35.556;2023-02-13T16:47:04;18.13;;;9.20;;
73337;SDS011;61575;49.908;35.556;2023-02-13T16:50:11;18.55;;;8.82;;
73337;SDS011;61575;49.908;35.556;2023-02-13T16:53:16;17.38;;;9.45;;
73337;SDS011;61575;49.908;35.556;2023-02-13T16:56:18;20.52;;;9.55;;
73337;SDS011;61575;49.908;35.556;2023-02-13T17:02:40;18.92;;;9.77;;
73337;SDS011;61575;49.908;35.556;2023-02-13T17:05:42;18.60;;;9.17;;
73337;SDS011;61575;49.908;35.556;2023-02-13T17:08:44;22.35;;;11.15;;
73337;SDS011;61575;49.908;35.556;2023-02-13T17:11:48;25.55;;;11.70;;
73337;SDS011;61575;49.908;35.556;2023-02-13T17:14:51;21.05;;;10.77;;
73337;SDS011;61575;49.908;35.556;2023-02-13T17:17:57;22.73;;;10.65;;
73337;SDS011;61575;49.908;35.556;2023-02-13T17:21:00;29.73;;;15.35;;
73337;SDS011;61575;49.908;35.556;2023-02-13T17:24:02;18.85;;;9.45;;
73337;SDS011;61575;49.908;35.556;2023-02-13T17:27:04;23.63;;;10.30;;
73337;SDS011;61575;49.908;35.556;2023-02-13T17:30:06;17.75;;;10.02;;
73337;SDS011;61575;49.908;35.556;2023-02-13T17:33:12;19.83;;;9.70;;
73337;SDS011;61575;49.908;35.556;2023-02-13T17:36:17;21.08;;;10.48;;
73337;SDS011;61575;49.908;35.556;2023-02-13T17:39:19;23.33;;;10.52;;
73337;SDS011;61575;49.908;35.556;2023-02-13T17:42:22;23.23;;;10.45;;
73337;SDS011;61575;49.908;35.556;2023-02-13T17:45:26;26.70;;;10.80;;
73337;SDS011;61575;49.908;35.556;2023-02-13T17:48:29;20.67;;;10.10;;
73337;SDS011;61575;49.908;35.556;2023-02-13T17:51:31;19.83;;;10.07;;
73337;SDS011;61575;49.908;35.556;2023-02-13T17:54:33;22.23;;;11.30;;
73337;SDS011;61575;49.908;35.556;2023-02-13T17:57:36;23.08;;;10.40;;
73337;SDS011;61575;49.908;35.556;2023-02-13T18:00:38;20.30;;;10.45;;
73337;SDS011;61575;49.908;35.556;2023-02-13T18:03:40;23.83;;;11.20;;
73337;SDS011;61575;49.908;35.556;2023-02-13T18:06:42;27.33;;;12.98;;
73337;SDS011;61575;49.908;35.556;2023-02-13T18:09:43;20.98;;;10.55;;
73337;SDS011;61575;49.908;35.556;2023-02-13T18:12:46;23.83;;;10.70;;
73337;SDS011;61575;49.908;35.556;2023-02-13T18:15:49;23.38;;;11.57;;
73337;SDS011;61575;49.908;35.556;2023-02-13T18:18:51;25.80;;;13.67;;
73337;SDS011;61575;49.908;35.556;2023-02-13T18:21:53;22.23;;;11.50;;
73337;SDS011;61575;49.908;35.556;2023-02-13T18:24:55;24.60;;;11.95;;
73337;SDS011;61575;49.908;35.556;2023-02-13T18:27:56;23.15;;;12.65;;
73337;SDS011;61575;49.908;35.556;2023-02-13T18:30:58;19.83;;;9.80;;
73337;SDS011;61575;49.908;35.556;2023-02-13T18:34:01;21.48;;;10.27;;
73337;SDS011;61575;49.908;35.556;2023-02-13T18:37:03;26.33;;;13.75;;
73337;SDS011;61575;49.908;35.556;2023-02-13T18:40:06;34.50;;;15.68;;
73337;SDS011;61575;49.908;35.556;2023-02-13T18:43:08;22.83;;;11.20;;
73337;SDS011;61575;49.908;35.556;2023-02-13T18:46:10;26.98;;;11.93;;
73337;SDS011;61575;49.908;35.556;2023-02-13T18:49:12;24.87;;;11.10;;
73337;SDS011;61575;49.908;35.556;2023-02-13T18:52:15;45.22;;;20.10;;
73337;SDS011;61575;49.908;35.556;2023-02-13T18:55:17;24.05;;;11.40;;
73337;SDS011;61575;49.908;35.556;2023-02-13T18:58:19;19.80;;;9.73;;
73337;SDS011;61575;49.908;35.556;2023-02-13T19:01:21;27.00;;;11.97;;
73337;SDS011;61575;49.908;35.556;2023-02-13T19:04:24;19.70;;;9.10;;
73337;SDS011;61575;49.908;35.556;2023-02-13T19:07:26;16.70;;;8.43;;
73337;SDS011;61575;49.908;35.556;2023-02-13T19:10:28;21.40;;;10.45;;
73337;SDS011;61575;49.908;35.556;2023-02-13T19:13:31;18.63;;;8.50;;
73337;SDS011;61575;49.908;35.556;2023-02-13T19:16:33;16.50;;;8.63;;
73337;SDS011;61575;49.908;35.556;2023-02-13T19:19:36;17.77;;;8.48;;
73337;SDS011;61575;49.908;35.556;2023-02-13T19:22:38;14.47;;;7.50;;
73337;SDS011;61575;49.908;35.556;2023-02-13T19:25:40;18.83;;;9.27;;
73337;SDS011;61575;49.908;35.556;2023-02-13T19:28:43;21.30;;;9.90;;
73337;SDS011;61575;49.908;35.556;2023-02-13T19:31:45;17.73;;;8.55;;
73337;SDS011;61575;49.908;35.556;2023-02-13T19:34:47;17.45;;;8.18;;
73337;SDS011;61575;49.908;35.556;2023-02-13T19:37:49;16.37;;;8.97;;
73337;SDS011;61575;49.908;35.556;2023-02-13T19:40:51;17.03;;;7.83;;
73337;SDS011;61575;49.908;35.556;2023-02-13T19:43:54;17.88;;;8.68;;
73337;SDS011;61575;49.908;35.556;2023-02-13T19:46:57;18.35;;;8.15;;
73337;SDS011;61575;49.908;35.556;2023-02-13T19:49:59;17.98;;;8.88;;
73337;SDS011;61575;49.908;35.556;2023-02-13T19:53:01;16.50;;;8.20;;
73337;SDS011;61575;49.908;35.556;2023-02-13T19:56:05;16.40;;;7.88;;
73337;SDS011;61575;49.908;35.556;2023-02-13T19:59:09;14.88;;;7.75;;
73337;SDS011;61575;49.908;35.556;2023-02-13T20:02:13;16.65;;;7.45;;
73337;SDS011;61575;49.908;35.556;2023-02-13T20:05:16;13.38;;;6.72;;
73337;SDS011;61575;49.908;35.556;2023-02-13T20:08:18;13.97;;;6.67;;
73337;SDS011;61575;49.908;35.556;2023-02-13T20:11:20;12.65;;;6.93;;
73337;SDS011;61575;49.908;35.556;2023-02-13T20:14:22;17.65;;;8.57;;
73337;SDS011;61575;49.908;35.556;2023-02-13T20:17:24;16.65;;;7.38;;
73337;SDS011;61575;49.908;35.556;2023-02-13T20:20:26;15.00;;;7.53;;
73337;SDS011;61575;49.908;35.556;2023-02-13T20:23:28;13.18;;;7.00;;
73337;SDS011;61575;49.908;35.556;2023-02-13T20:26:30;16.73;;;8.13;;
73337;SDS011;61575;49.908;35.556;2023-02-13T20:29:33;21.73;;;9.77;;
73337;SDS011;61575;49.908;35.556;2023-02-13T20:32:37;19.40;;;9.68;;
73337;SDS011;61575;49.908;35.556;2023-02-13T20:35:39;16.08;;;7.47;;
73337;SDS011;61575;49.908;35.556;2023-02-13T20:38:41;13.13;;;6.07;;
73337;SDS011;61575;49.908;35.556;2023-02-13T20:41:43;11.88;;;6.53;;
73337;SDS011;61575;49.908;35.556;2023-02-13T20:44:50;12.18;;;6.18;;
73337;SDS011;61575;49.908;35.556;2023-02-13T20:47:52;11.02;;;5.97;;
73337;SDS011;61575;49.908;35.556;2023-02-13T20:50:58;12.33;;;5.70;;
73337;SDS011;61575;49.908;35.556;2023-02-13T20:54:01;13.43;;;5.93;;
73337;SDS011;61575;49.908;35.556;2023-02-13T20:57:04;11.57;;;5.93;;
73337;SDS011;61575;49.908;35.556;2023-02-13T21:00:07;14.47;;;7.00;;
73337;SDS011;61575;49.908;35.556;2023-02-13T21:06:11;20.30;;;8.63;;
73337;SDS011;61575;49.908;35.556;2023-02-13T21:09:14;16.23;;;7.87;;
73337;SDS011;61575;49.908;35.556;2023-02-13T21:12:16;14.05;;;7.00;;